Fort Nelson Airport, British Columbia

Past 24 Hour Conditions

Date / Time
(PDT)
Conditions Temp
(°F)
Humidity
(%)
Dew Point
(°F)
Wind
(mph)
Pressure
(inches)
Visibility
(miles)
07 July 2015
6:00 Mostly Cloudy 45 89 42 calm 30.1 15
5:00 Mostly Cloudy 44   91 41 SW 2 30.1 15
4:00 Mostly Cloudy 45 89 42 W 2 30.2 15
3:00 Mostly Cloudy 44   89 41 WSW 3 30.2 15
2:00 Mostly Cloudy 46 88 43 W 2 30.2 15
1:00 Partly Cloudy 48 90 45 calm 30.2 15
00:00 Partly Cloudy 48 87 44 SW 4 30.2 15
06 July 2015
23:00 Partly Cloudy 50 88 47 W 3 30.2 15
22:00 Mainly Sunny 54 80 48 WSW 3 30.2 15
21:00 Mainly Sunny 61 59 47 calm 30.2 15
20:00 Mainly Sunny 62 56 46 SSW 4 30.2 15
19:00 Partly Cloudy 63   54 46 SSE 4 30.2 15
18:00 Mostly Cloudy 62 54 46 SSE 4 30.2 15
17:00 Mostly Cloudy 62 52 44 W 2 30.3 15
16:00 Mostly Cloudy 62 51 44 NNW 5 30.3 15
15:00 Mostly Cloudy 61 55 45 N 7 30.3 15
14:00 Mostly Cloudy 59 60 45 NW 5 30.3 15
13:00 Mostly Cloudy 58 64 46 NNW 9 30.3 15
12:00 Cloudy 55 74 47 NW 7 30.3 15
11:00 Cloudy 53 80 47 NNW 11 30.3 15
10:00 Cloudy 53 81 47 NW 8 30.3 15
9:00 Cloudy 53 83 48 NNW 9 30.2 10
8:00 Mostly Cloudy 53 83 48 NNW 8 30.2 15
7:00 Mostly Cloudy 54 79 48 NNW 18 gust 30 30.2 15
6:00 Mostly Cloudy 57 84 53 NNW 15 30.2 15
N/A Not available
↑ Highest temperature
↓ Lowest temperature

If you require additional historical weather information, please visit Climate Data Online.

What we are doing

Date modified: